createdAt,value
2022-09-26T00:02:36.240Z,1007.45
2022-09-26T00:06:35.318Z,1007.28
2022-09-26T00:10:35.087Z,1007.17
2022-09-26T00:14:35.942Z,1007.04
2022-09-26T00:18:35.737Z,1007
2022-09-26T00:22:35.530Z,1006.75
2022-09-26T00:26:35.748Z,1006.76
2022-09-26T00:30:35.535Z,1006.64
2022-09-26T00:34:35.810Z,1006.61
2022-09-26T00:38:35.140Z,1006.53
2022-09-26T00:42:35.371Z,1006.5
2022-09-26T00:46:36.562Z,1006.35
2022-09-26T00:50:35.798Z,1006.17
2022-09-26T00:54:35.375Z,1005.96
2022-09-26T00:58:35.241Z,1006.08
2022-09-26T01:02:36.426Z,1005.95
2022-09-26T01:06:35.853Z,1005.62
2022-09-26T01:10:35.800Z,1005.66
2022-09-26T01:14:35.337Z,1005.52
2022-09-26T01:18:35.105Z,1005.38
2022-09-26T01:22:35.080Z,1005.19
2022-09-26T01:26:35.197Z,1005.26
2022-09-26T01:30:35.774Z,1005.24
2022-09-26T01:34:35.765Z,1005.21
2022-09-26T01:38:35.642Z,1005.07
2022-09-26T01:42:35.913Z,1005.1
2022-09-26T01:46:35.655Z,1004.98
2022-09-26T01:50:35.114Z,1004.95
2022-09-26T01:54:35.411Z,1004.87
2022-09-26T01:58:35.059Z,1004.73
2022-09-26T02:02:36.030Z,1004.7
2022-09-26T02:06:35.096Z,1004.62
2022-09-26T02:10:35.718Z,1004.44
2022-09-26T02:14:35.507Z,1004.37
2022-09-26T02:18:35.769Z,1004.4
2022-09-26T02:22:35.108Z,1004.35
2022-09-26T02:26:35.422Z,1004.25
2022-09-26T02:30:35.372Z,1004.13
2022-09-26T02:34:35.320Z,1004.04
2022-09-26T02:38:35.972Z,1003.9
2022-09-26T02:42:35.031Z,1003.92
2022-09-26T02:46:35.438Z,1003.81
2022-09-26T02:50:35.822Z,1003.65
2022-09-26T02:54:35.204Z,1003.49
2022-09-26T02:58:35.518Z,1003.36
2022-09-26T03:02:35.130Z,1003.37
2022-09-26T03:06:35.709Z,1003.2
2022-09-26T03:10:35.408Z,1003.25
2022-09-26T03:14:35.063Z,1003.1
2022-09-26T03:18:35.559Z,1003.06
2022-09-26T03:22:35.404Z,1002.89
2022-09-26T03:26:35.035Z,1002.8
2022-09-26T03:30:35.303Z,1002.78
2022-09-26T03:34:35.042Z,1002.74
2022-09-26T03:38:37.157Z,1002.6
2022-09-26T03:42:35.241Z,1002.53
2022-09-26T03:46:39.908Z,1002.26
2022-09-26T03:50:35.401Z,1002.2
2022-09-26T03:54:35.303Z,1002.12
2022-09-26T03:58:35.415Z,1002.11
2022-09-26T04:02:35.438Z,1001.99
2022-09-26T04:06:35.700Z,1001.89
2022-09-26T04:10:35.443Z,1001.6
2022-09-26T04:14:35.317Z,1001.56
2022-09-26T04:18:35.420Z,1001.62
2022-09-26T04:22:35.923Z,1001.45
2022-09-26T04:26:36.003Z,1001.27
2022-09-26T04:30:36.030Z,1001.29
2022-09-26T04:34:38.885Z,1001.22
2022-09-26T04:38:35.949Z,1001.1
2022-09-26T04:42:35.174Z,1001.05
2022-09-26T04:46:42.555Z,1000.82
2022-09-26T04:50:35.624Z,1000.82
2022-09-26T04:54:36.066Z,1000.77
2022-09-26T04:58:35.163Z,1000.74
2022-09-26T05:02:35.879Z,1000.66
2022-09-26T05:06:35.235Z,1000.57
2022-09-26T05:10:35.996Z,1000.39
2022-09-26T05:14:35.589Z,1000.41
2022-09-26T05:18:35.905Z,1000.18
2022-09-26T05:22:35.355Z,1000.15
2022-09-26T05:26:35.388Z,1000.02
2022-09-26T05:30:35.469Z,999.9
2022-09-26T05:34:42.215Z,999.78
2022-09-26T05:38:35.599Z,999.8
2022-09-26T05:42:35.885Z,999.63
2022-09-26T05:46:35.279Z,999.61
2022-09-26T05:50:35.257Z,999.52
2022-09-26T05:54:35.254Z,999.42
2022-09-26T05:58:35.165Z,999.55
2022-09-26T06:02:42.643Z,999.41
2022-09-26T06:06:35.242Z,999.43
2022-09-26T06:10:35.056Z,999.24
2022-09-26T06:14:35.235Z,999.34
2022-09-26T06:18:35.290Z,999.22
2022-09-26T06:22:35.613Z,999.09
2022-09-26T06:26:35.265Z,999.05
2022-09-26T06:30:35.813Z,998.87
2022-09-26T06:34:35.945Z,998.68
2022-09-26T06:38:35.047Z,998.61
2022-09-26T06:42:35.156Z,998.52
2022-09-26T06:46:35.567Z,998.38
2022-09-26T06:50:35.817Z,998.35
2022-09-26T06:54:35.539Z,998.17
2022-09-26T06:58:35.493Z,998.18
2022-09-26T07:02:36.540Z,998.08
2022-09-26T07:06:35.380Z,998.06
2022-09-26T07:10:35.158Z,997.98
2022-09-26T07:14:35.342Z,998.08
2022-09-26T07:18:35.915Z,997.96
2022-09-26T07:22:35.468Z,997.92
2022-09-26T07:26:35.627Z,997.85
2022-09-26T07:30:35.749Z,997.73
2022-09-26T07:34:40.964Z,997.76
2022-09-26T07:38:35.358Z,997.86
2022-09-26T07:42:35.714Z,997.83
2022-09-26T07:46:35.359Z,997.78
2022-09-26T07:48:34.959Z,997.78
2022-09-26T07:50:35.624Z,997.68
2022-09-26T07:52:35.823Z,997.68
2022-09-26T07:54:35.817Z,997.72
2022-09-26T07:56:35.183Z,997.72
2022-09-26T07:58:35.368Z,997.7
2022-09-26T08:00:39.045Z,997.7
2022-09-26T08:02:36.926Z,997.74
2022-09-26T08:04:35.670Z,997.74
2022-09-26T08:06:35.356Z,997.63
2022-09-26T08:08:35.821Z,997.63
2022-09-26T08:10:36.018Z,997.58
2022-09-26T08:12:35.527Z,997.58
2022-09-26T08:14:35.922Z,997.47
2022-09-26T08:16:35.410Z,997.47
2022-09-26T08:18:35.371Z,997.41
2022-09-26T08:20:42.602Z,997.36
2022-09-26T08:22:35.162Z,997.36
2022-09-26T08:24:35.545Z,997.34
2022-09-26T08:26:39.317Z,997.34
2022-09-26T08:28:35.374Z,997.31
2022-09-26T08:30:35.857Z,997.31
2022-09-26T08:32:35.492Z,997.21
2022-09-26T08:34:37.181Z,997.21
2022-09-26T08:36:35.365Z,997.06
2022-09-26T08:38:35.550Z,997.06
2022-09-26T08:40:36.101Z,997.02
2022-09-26T08:42:35.306Z,997.02
2022-09-26T08:44:35.925Z,996.92
2022-09-26T08:46:35.653Z,996.92
2022-09-26T08:48:35.713Z,996.85
2022-09-26T08:50:35.709Z,996.85
2022-09-26T08:52:35.591Z,996.79
2022-09-26T08:54:35.525Z,996.79
2022-09-26T08:56:35.334Z,996.74
2022-09-26T08:58:40.497Z,996.74
2022-09-26T09:00:38.067Z,996.7
2022-09-26T09:02:35.909Z,996.7
2022-09-26T09:04:35.594Z,996.72
2022-09-26T09:06:36.601Z,996.72
2022-09-26T09:08:35.942Z,996.64
2022-09-26T09:10:36.317Z,996.64
2022-09-26T09:12:41.368Z,996.54
2022-09-26T09:14:35.978Z,996.54
2022-09-26T09:16:35.618Z,996.53
2022-09-26T09:18:36.708Z,996.53
2022-09-26T09:20:35.545Z,996.47
2022-09-26T09:22:35.876Z,996.47
2022-09-26T09:24:35.565Z,996.44
2022-09-26T09:28:08.661Z,996.36
2022-09-26T09:28:42.962Z,996.36
2022-09-26T09:30:40.129Z,996.36
2022-09-26T09:32:36.100Z,996.41
2022-09-26T09:34:36.154Z,996.41
2022-09-26T09:36:36.287Z,996.45
2022-09-26T09:38:35.922Z,996.45
2022-09-26T09:40:35.567Z,996.59
2022-09-26T09:42:35.810Z,996.59
2022-09-26T09:44:36.630Z,996.66
2022-09-26T09:46:35.931Z,996.66
2022-09-26T09:48:36.010Z,996.59
2022-09-26T09:50:35.590Z,996.59
2022-09-26T09:52:36.142Z,996.59
2022-09-26T09:54:35.514Z,996.59
2022-09-26T09:56:35.995Z,996.4
2022-09-26T09:58:35.470Z,996.4
2022-09-26T10:00:38.244Z,996.39
2022-09-26T10:02:35.523Z,996.39
2022-09-26T10:04:36.544Z,996.26
2022-09-26T10:07:09.809Z,996.26
2022-09-26T10:08:36.209Z,996.26
2022-09-26T10:10:36.016Z,996.26
2022-09-26T10:12:36.462Z,996.31
2022-09-26T10:14:36.108Z,996.31
2022-09-26T10:16:35.886Z,996.28
2022-09-26T10:19:03.167Z,996.28
2022-09-26T10:20:35.425Z,996.18
2022-09-26T10:22:35.833Z,996.18
2022-09-26T10:24:37.025Z,995.97
2022-09-26T10:26:42.531Z,995.97
2022-09-26T10:28:36.753Z,996.04
2022-09-26T10:30:36.493Z,996.04
2022-09-26T10:32:36.417Z,996.1
2022-09-26T10:34:35.903Z,996.1
2022-09-26T10:36:36.616Z,996.13
2022-09-26T10:38:36.042Z,996.13
2022-09-26T10:40:36.258Z,996.03
2022-09-26T10:42:43.648Z,996.03
2022-09-26T10:44:35.726Z,996.11
2022-09-26T10:46:37.225Z,996.11
2022-09-26T10:48:35.727Z,996.18
2022-09-26T10:50:35.745Z,996.18
2022-09-26T10:52:41.886Z,996.12
2022-09-26T10:54:37.877Z,996.12
2022-09-26T10:56:36.133Z,996.14
2022-09-26T10:58:37.151Z,996.14
2022-09-26T11:00:38.060Z,996.16
2022-09-26T11:02:35.858Z,996.16
2022-09-26T11:04:36.603Z,996.24
2022-09-26T11:06:36.169Z,996.24
2022-09-26T11:08:35.786Z,996.08
2022-09-26T11:10:35.592Z,996.08
2022-09-26T11:12:37.350Z,996.17
2022-09-26T11:14:41.005Z,996.17
2022-09-26T11:16:38.321Z,996.16
2022-09-26T11:18:35.765Z,996.16
2022-09-26T11:20:36.621Z,996.08
2022-09-26T11:22:41.908Z,996.08
2022-09-26T11:24:36.947Z,996.13
2022-09-26T11:26:36.381Z,996.13
2022-09-26T11:28:35.349Z,996.12
2022-09-26T11:30:35.475Z,996.12
2022-09-26T11:32:41.365Z,996.03
2022-09-26T11:34:37.210Z,995.99
2022-09-26T11:36:35.009Z,995.99
2022-09-26T11:38:35.413Z,996.03
2022-09-26T11:40:42.355Z,996.03
2022-09-26T11:42:38.900Z,995.95
2022-09-26T11:44:37.479Z,995.95
2022-09-26T11:46:39.015Z,995.83
2022-09-26T11:48:39.292Z,995.83
2022-09-26T11:50:38.890Z,995.92
2022-09-26T11:52:36.527Z,995.92
2022-09-26T11:54:36.901Z,995.91
2022-09-26T11:56:38.256Z,995.91
2022-09-26T11:58:38.041Z,995.88
2022-09-26T12:00:38.311Z,995.88
2022-09-26T12:02:35.807Z,995.92
2022-09-26T12:04:36.248Z,995.92
2022-09-26T12:06:35.393Z,995.85
2022-09-26T12:08:35.310Z,995.85
2022-09-26T12:10:35.710Z,995.77
2022-09-26T12:12:40.305Z,995.77
2022-09-26T12:14:35.318Z,995.93
2022-09-26T12:16:36.095Z,995.93
2022-09-26T12:18:35.583Z,995.86
2022-09-26T12:20:35.166Z,995.86
2022-09-26T12:22:35.700Z,995.89
2022-09-26T12:24:35.504Z,995.89
2022-09-26T12:26:35.300Z,995.92
2022-09-26T12:28:35.888Z,995.92
2022-09-26T12:30:35.339Z,995.84
2022-09-26T12:32:35.689Z,995.84
2022-09-26T12:34:35.403Z,995.73
2022-09-26T12:36:35.014Z,995.73
2022-09-26T12:38:35.324Z,995.77
2022-09-26T12:40:35.319Z,995.77
2022-09-26T12:42:35.093Z,995.67
2022-09-26T12:44:35.518Z,995.67
2022-09-26T12:46:36.199Z,995.67
2022-09-26T12:48:35.036Z,995.67
2022-09-26T12:50:35.312Z,995.64
2022-09-26T12:52:38.768Z,995.64
2022-09-26T12:54:35.949Z,995.58
2022-09-26T12:56:35.116Z,995.58
2022-09-26T12:58:35.460Z,995.63
2022-09-26T13:00:41.530Z,995.63
2022-09-26T13:02:36.182Z,995.45
2022-09-26T13:04:35.378Z,995.45
2022-09-26T13:06:52.792Z,995.46
2022-09-26T13:08:35.373Z,995.46
2022-09-26T13:10:35.469Z,995.43
2022-09-26T13:12:35.831Z,995.43
2022-09-26T13:14:35.311Z,995.35
2022-09-26T13:16:35.459Z,995.35
2022-09-26T13:18:38.049Z,995.34
2022-09-26T13:20:35.199Z,995.34
2022-09-26T13:22:35.621Z,995.32
2022-09-26T13:24:35.343Z,995.32
2022-09-26T13:26:35.872Z,995.27
2022-09-26T13:28:35.131Z,995.27
2022-09-26T13:30:35.921Z,995.12
2022-09-26T13:32:35.612Z,995.12
2022-09-26T13:34:35.211Z,995.14
2022-09-26T13:36:35.524Z,995.14
2022-09-26T13:38:41.888Z,995.07
2022-09-26T13:40:36.292Z,995.07
2022-09-26T13:42:35.056Z,995.21
2022-09-26T13:44:35.211Z,995.21
2022-09-26T13:46:36.313Z,995.1
2022-09-26T13:48:35.411Z,995.1
2022-09-26T13:50:35.586Z,995.1
2022-09-26T13:52:35.900Z,995.1
2022-09-26T13:54:35.612Z,995.15
2022-09-26T13:56:35.264Z,995.15
2022-09-26T13:58:35.904Z,995.11
2022-09-26T14:00:38.489Z,995.11
2022-09-26T14:02:35.664Z,995.05
2022-09-26T14:04:35.210Z,995.05
2022-09-26T14:06:35.655Z,995.25
2022-09-26T14:08:35.915Z,995.25
2022-09-26T14:10:35.629Z,995.29
2022-09-26T14:12:35.760Z,995.29
2022-09-26T14:14:35.491Z,995.09
2022-09-26T14:16:35.926Z,995.09
2022-09-26T14:18:35.750Z,995.06
2022-09-26T14:20:36.014Z,995.06
2022-09-26T14:22:35.118Z,995.24
2022-09-26T14:24:35.329Z,995.24
2022-09-26T14:26:35.596Z,995.04
2022-09-26T14:28:41.084Z,995.04
2022-09-26T14:30:35.076Z,995.12
2022-09-26T14:32:35.706Z,995.12
2022-09-26T14:34:35.220Z,995.15
2022-09-26T14:36:35.576Z,995.15
2022-09-26T14:38:35.337Z,995.04
2022-09-26T14:40:36.325Z,995.04
2022-09-26T14:42:35.433Z,995.02
2022-09-26T14:44:37.364Z,995.02
2022-09-26T14:46:36.015Z,995.04
2022-09-26T14:48:35.099Z,995.04
2022-09-26T14:50:35.283Z,994.93
2022-09-26T14:52:35.337Z,994.93
2022-09-26T14:54:35.043Z,994.85
2022-09-26T14:56:35.597Z,994.85
2022-09-26T14:58:35.304Z,994.73
2022-09-26T15:00:38.819Z,994.9
2022-09-26T15:02:35.605Z,994.9
2022-09-26T15:04:35.779Z,994.9
2022-09-26T15:06:35.231Z,994.8
2022-09-26T15:08:39.092Z,994.8
2022-09-26T15:10:35.655Z,994.8
2022-09-26T15:12:35.708Z,994.78
2022-09-26T15:14:35.722Z,994.78
2022-09-26T15:16:35.962Z,994.77
2022-09-26T15:18:35.248Z,994.77
2022-09-26T15:20:35.656Z,994.75
2022-09-26T15:22:35.356Z,994.75
2022-09-26T15:24:35.628Z,994.76
2022-09-26T15:26:35.827Z,994.76
2022-09-26T15:28:35.833Z,994.69
2022-09-26T15:30:35.835Z,994.69
2022-09-26T15:32:35.721Z,994.72
2022-09-26T15:34:35.961Z,994.72
2022-09-26T15:36:35.692Z,994.69
2022-09-26T15:38:35.835Z,994.69
2022-09-26T15:40:35.988Z,994.88
2022-09-26T15:42:35.180Z,994.88
2022-09-26T15:44:35.431Z,994.75
2022-09-26T15:46:43.125Z,994.75
2022-09-26T15:48:35.484Z,994.78
2022-09-26T15:50:35.570Z,994.78
2022-09-26T15:52:35.402Z,994.78
2022-09-26T15:54:36.053Z,994.78
2022-09-26T15:56:35.080Z,994.68
2022-09-26T15:58:35.555Z,994.68
2022-09-26T16:00:38.410Z,994.79
2022-09-26T16:02:36.018Z,994.79
2022-09-26T16:04:35.213Z,994.65
2022-09-26T16:06:35.127Z,994.65
2022-09-26T16:08:35.396Z,994.71
2022-09-26T16:10:35.741Z,994.71
2022-09-26T16:12:38.033Z,994.68
2022-09-26T16:14:35.214Z,994.68
2022-09-26T16:16:35.744Z,994.72
2022-09-26T16:18:35.395Z,994.72
2022-09-26T16:20:35.515Z,994.76
2022-09-26T16:22:35.779Z,994.76
2022-09-26T16:24:35.411Z,994.87
2022-09-26T16:26:35.027Z,994.87
2022-09-26T16:28:35.926Z,995.19
2022-09-26T16:30:39.485Z,995.19
2022-09-26T16:32:35.569Z,995.14
2022-09-26T16:34:35.650Z,995.14
2022-09-26T16:36:35.377Z,995.16
2022-09-26T16:38:35.970Z,995.16
2022-09-26T16:40:35.445Z,995.19
2022-09-26T16:42:37.307Z,995.19
2022-09-26T16:44:49.185Z,995.13
2022-09-26T16:46:36.017Z,995.13
2022-09-26T16:48:35.189Z,995.07
2022-09-26T16:50:35.708Z,995.07
2022-09-26T16:52:35.550Z,994.94
2022-09-26T16:54:36.210Z,994.94
2022-09-26T16:56:35.001Z,994.96
2022-09-26T16:58:37.400Z,994.96
2022-09-26T17:00:38.243Z,995.02
2022-09-26T17:02:35.423Z,995.02
2022-09-26T17:04:35.934Z,994.93
2022-09-26T17:06:35.858Z,994.93
2022-09-26T17:08:35.978Z,994.9
2022-09-26T17:10:36.058Z,994.9
2022-09-26T17:12:35.444Z,995.06
2022-09-26T17:14:40.061Z,995.06
2022-09-26T17:16:35.981Z,995.14
2022-09-26T17:18:35.898Z,995.14
2022-09-26T17:20:35.794Z,995.09
2022-09-26T17:22:35.939Z,995.09
2022-09-26T17:24:35.512Z,994.95
2022-09-26T17:26:35.548Z,994.95
2022-09-26T17:28:35.585Z,994.95
2022-09-26T17:30:36.048Z,994.95
2022-09-26T17:32:41.312Z,994.95
2022-09-26T17:34:35.752Z,994.95
2022-09-26T17:36:35.127Z,994.92
2022-09-26T17:38:38.703Z,994.92
2022-09-26T17:40:35.804Z,995.07
2022-09-26T17:42:35.134Z,995.07
2022-09-26T17:44:35.931Z,995.02
2022-09-26T17:46:38.690Z,995.02
2022-09-26T17:48:35.374Z,994.97
2022-09-26T17:50:35.695Z,994.97
2022-09-26T17:52:35.124Z,995.04
2022-09-26T17:54:35.623Z,995.04
2022-09-26T17:56:35.584Z,995.02
2022-09-26T17:58:35.337Z,995.02
2022-09-26T18:00:38.286Z,995.23
2022-09-26T18:02:36.408Z,995.23
2022-09-26T18:04:35.253Z,995.05
2022-09-26T18:06:35.371Z,995.05
2022-09-26T18:08:35.607Z,995.21
2022-09-26T18:10:35.769Z,995.21
2022-09-26T18:12:35.102Z,995.24
2022-09-26T18:14:35.625Z,995.24
2022-09-26T18:16:36.284Z,995.28
2022-09-26T18:18:35.455Z,995.28
2022-09-26T18:20:35.214Z,995.27
2022-09-26T18:22:35.595Z,995.27
2022-09-26T18:24:41.848Z,995.42
2022-09-26T18:26:35.857Z,995.34
2022-09-26T18:28:35.922Z,995.34
2022-09-26T18:30:35.116Z,995.53
2022-09-26T18:32:35.959Z,995.53
2022-09-26T18:34:35.643Z,995.44
2022-09-26T18:36:35.570Z,995.44
2022-09-26T18:38:35.770Z,995.44
2022-09-26T18:40:38.594Z,995.44
2022-09-26T18:42:35.274Z,995.5
2022-09-26T18:44:35.957Z,995.5
2022-09-26T18:46:35.642Z,995.68
2022-09-26T18:48:35.138Z,995.68
2022-09-26T18:50:35.384Z,995.69
2022-09-26T18:52:35.556Z,995.69
2022-09-26T18:54:35.774Z,995.63
2022-09-26T18:56:35.765Z,995.63
2022-09-26T18:58:35.237Z,995.82
2022-09-26T19:00:38.241Z,995.82
2022-09-26T19:02:36.197Z,995.86
2022-09-26T19:04:35.365Z,995.86
2022-09-26T19:06:35.688Z,995.99
2022-09-26T19:08:35.843Z,995.99
2022-09-26T19:10:35.478Z,995.88
2022-09-26T19:12:35.099Z,995.88
2022-09-26T19:14:35.382Z,995.99
2022-09-26T19:16:36.016Z,995.99
2022-09-26T19:18:35.550Z,995.92
2022-09-26T19:20:35.341Z,995.92
2022-09-26T19:22:35.455Z,996.03
2022-09-26T19:24:35.890Z,996.03
2022-09-26T19:26:35.066Z,995.97
2022-09-26T19:28:34.997Z,995.97
2022-09-26T19:30:35.207Z,996
2022-09-26T19:32:35.742Z,996
2022-09-26T19:34:35.300Z,996.04
2022-09-26T19:36:35.464Z,996.04
2022-09-26T19:38:35.861Z,996.12
2022-09-26T19:40:35.430Z,996.12
2022-09-26T19:42:35.520Z,996.04
2022-09-26T19:44:35.636Z,996.04
2022-09-26T19:46:36.211Z,996
2022-09-26T19:48:38.812Z,996
2022-09-26T19:50:35.454Z,996.07
2022-09-26T19:52:35.394Z,996.07
2022-09-26T19:54:40.749Z,996.01
2022-09-26T19:56:35.140Z,996.01
2022-09-26T19:58:35.469Z,996.15
2022-09-26T20:00:39.639Z,996.15
2022-09-26T20:02:35.553Z,995.98
2022-09-26T20:04:35.389Z,995.98
2022-09-26T20:06:35.093Z,996.1
2022-09-26T20:08:35.360Z,996.1
2022-09-26T20:10:35.166Z,996.02
2022-09-26T20:12:35.832Z,996.02
2022-09-26T20:14:35.502Z,996.17
2022-09-26T20:16:36.166Z,996.17
2022-09-26T20:18:35.342Z,996.06
2022-09-26T20:20:35.110Z,996.06
2022-09-26T20:22:35.199Z,996.17
2022-09-26T20:24:35.933Z,996.17
2022-09-26T20:26:35.302Z,996.04
2022-09-26T20:28:35.053Z,996.04
2022-09-26T20:30:35.622Z,996.08
2022-09-26T20:32:38.248Z,996.08
2022-09-26T20:34:35.557Z,995.99
2022-09-26T20:36:37.300Z,995.99
2022-09-26T20:38:35.551Z,995.99
2022-09-26T20:40:35.827Z,995.99
2022-09-26T20:42:35.876Z,996.11
2022-09-26T20:44:35.207Z,996.11
2022-09-26T20:46:36.372Z,996.16
2022-09-26T20:48:35.650Z,996.16
2022-09-26T20:50:35.637Z,996.07
2022-09-26T20:52:35.646Z,996.07
2022-09-26T20:54:35.717Z,996.07
2022-09-26T20:56:35.434Z,996.07
2022-09-26T20:58:35.501Z,995.99
2022-09-26T21:00:37.681Z,995.99
2022-09-26T21:02:36.307Z,995.92
2022-09-26T21:04:35.274Z,995.92
2022-09-26T21:06:35.399Z,996.06
2022-09-26T21:08:35.790Z,996.06
2022-09-26T21:10:35.743Z,996.09
2022-09-26T21:12:35.218Z,996.09
2022-09-26T21:14:35.661Z,996.01
2022-09-26T21:16:35.728Z,996.01
2022-09-26T21:18:35.773Z,995.85
2022-09-26T21:20:35.323Z,995.85
2022-09-26T21:22:36.770Z,995.96
2022-09-26T21:24:36.780Z,995.96
2022-09-26T21:26:35.971Z,995.89
2022-09-26T21:28:35.909Z,995.89
2022-09-26T21:30:35.519Z,995.87
2022-09-26T21:32:35.624Z,995.87
2022-09-26T21:34:35.985Z,995.98
2022-09-26T21:36:35.697Z,995.98
2022-09-26T21:38:35.252Z,995.89
2022-09-26T21:40:35.809Z,995.89
2022-09-26T21:42:35.384Z,995.94
2022-09-26T21:44:35.732Z,995.94
2022-09-26T21:46:35.943Z,995.81
2022-09-26T21:48:35.612Z,995.79
2022-09-26T21:50:35.189Z,995.79
2022-09-26T21:52:35.719Z,995.82
2022-09-26T21:54:35.915Z,995.82
2022-09-26T21:56:41.350Z,995.76
2022-09-26T21:58:35.369Z,995.76
2022-09-26T22:00:35.460Z,995.83
2022-09-26T22:02:36.098Z,995.83
2022-09-26T22:04:35.525Z,995.8
2022-09-26T22:06:40.797Z,995.8
2022-09-26T22:08:35.188Z,995.91
2022-09-26T22:10:35.426Z,995.91
2022-09-26T22:12:35.992Z,995.94
2022-09-26T22:14:36.584Z,995.94
2022-09-26T22:16:35.701Z,996.04
2022-09-26T22:18:35.993Z,996.04
2022-09-26T22:20:35.019Z,995.92
2022-09-26T22:22:35.542Z,995.92
2022-09-26T22:24:35.212Z,996
2022-09-26T22:26:35.596Z,996
2022-09-26T22:28:35.419Z,995.91
2022-09-26T22:30:35.632Z,995.91
2022-09-26T22:32:35.102Z,996.08
2022-09-26T22:34:35.557Z,996.08
2022-09-26T22:36:35.690Z,996.02
2022-09-26T22:38:35.897Z,996.02
2022-09-26T22:40:36.160Z,996.01
2022-09-26T22:42:35.672Z,996.01
2022-09-26T22:44:35.876Z,996.02
2022-09-26T22:46:35.899Z,996.02
2022-09-26T22:48:35.907Z,995.96
2022-09-26T22:50:35.444Z,995.96
2022-09-26T22:52:35.611Z,996.02
2022-09-26T22:54:35.335Z,996.02
2022-09-26T22:56:35.203Z,995.79
2022-09-26T22:58:35.597Z,995.79
2022-09-26T23:00:38.417Z,995.83
2022-09-26T23:02:35.739Z,995.83
2022-09-26T23:04:36.059Z,995.68
2022-09-26T23:06:35.213Z,995.68
2022-09-26T23:08:35.503Z,995.83
2022-09-26T23:10:35.988Z,995.83
2022-09-26T23:12:35.419Z,995.82
2022-09-26T23:14:36.074Z,995.82
2022-09-26T23:16:35.307Z,995.88
2022-09-26T23:18:35.057Z,995.88
2022-09-26T23:20:35.872Z,996.04
2022-09-26T23:22:35.829Z,996.04
2022-09-26T23:24:35.090Z,995.86
2022-09-26T23:26:35.426Z,995.86
2022-09-26T23:28:35.308Z,995.94
2022-09-26T23:30:35.570Z,995.94
2022-09-26T23:32:35.747Z,995.83
2022-09-26T23:34:35.970Z,995.83
2022-09-26T23:36:35.618Z,995.87
2022-09-26T23:38:35.247Z,995.87
2022-09-26T23:40:35.997Z,995.79
2022-09-26T23:42:35.563Z,995.79
2022-09-26T23:44:35.146Z,995.93
2022-09-26T23:46:36.228Z,995.93
2022-09-26T23:48:35.916Z,995.88
2022-09-26T23:50:35.495Z,995.88
2022-09-26T23:52:35.593Z,995.89
2022-09-26T23:54:35.665Z,995.89
2022-09-26T23:56:35.386Z,996.06
2022-09-26T23:58:35.786Z,996.06
